createdAt,value
2018-06-03T00:01:13.764Z,53.00
2018-06-03T00:03:42.299Z,52.90
2018-06-03T00:08:38.267Z,53.00
2018-06-03T00:11:06.476Z,53.00
2018-06-03T00:13:34.572Z,53.00
2018-06-03T00:16:02.724Z,53.00
2018-06-03T00:18:30.831Z,53.00
2018-06-03T00:21:10.443Z,53.00
2018-06-03T00:23:38.478Z,53.00
2018-06-03T00:26:06.604Z,52.90
2018-06-03T00:28:34.716Z,52.90
2018-06-03T00:31:02.778Z,52.90
2018-06-03T00:33:30.902Z,53.00
2018-06-03T00:36:10.612Z,53.00
2018-06-03T00:38:38.672Z,53.00
2018-06-03T00:41:06.805Z,53.00
2018-06-03T00:43:34.881Z,52.90
2018-06-03T00:46:03.144Z,53.00
2018-06-03T00:48:31.309Z,53.00
2018-06-03T00:50:59.413Z,53.00
2018-06-03T00:53:27.622Z,53.00
2018-06-03T00:55:55.709Z,53.00
2018-06-03T00:58:23.813Z,53.00
2018-06-03T01:00:51.893Z,53.00
2018-06-03T01:03:19.981Z,53.00
2018-06-03T01:05:48.164Z,53.00
2018-06-03T01:08:16.250Z,53.00
2018-06-03T01:10:44.333Z,53.00
2018-06-03T01:13:12.408Z,53.00
2018-06-03T01:15:40.506Z,53.10
2018-06-03T01:18:08.569Z,53.00
2018-06-03T01:20:36.637Z,53.10
2018-06-03T01:23:04.730Z,53.00
2018-06-03T01:25:32.847Z,53.00
2018-06-03T01:28:00.988Z,52.90
2018-06-03T01:30:29.129Z,52.90
2018-06-03T01:35:25.141Z,52.90
2018-06-03T01:37:53.221Z,52.90
2018-06-03T01:40:21.326Z,52.90
2018-06-03T01:42:49.412Z,52.90
2018-06-03T01:45:17.494Z,52.90
2018-06-03T01:47:45.640Z,52.80
2018-06-03T01:50:13.717Z,52.80
2018-06-03T01:52:41.824Z,52.90
2018-06-03T01:55:09.911Z,52.90
2018-06-03T01:57:37.994Z,52.80
2018-06-03T02:00:06.063Z,52.80
2018-06-03T02:02:34.185Z,52.80
2018-06-03T02:05:02.296Z,52.80
2018-06-03T02:07:30.433Z,52.80
2018-06-03T02:09:58.569Z,52.70
2018-06-03T02:12:26.694Z,52.70
2018-06-03T02:14:54.805Z,52.70
2018-06-03T02:17:22.897Z,52.70
2018-06-03T02:19:50.965Z,52.70
2018-06-03T02:22:19.041Z,52.70
2018-06-03T02:24:47.116Z,52.70
2018-06-03T02:27:15.212Z,52.70
2018-06-03T02:29:43.277Z,52.70
2018-06-03T02:32:11.369Z,52.80
2018-06-03T02:34:39.449Z,52.70
2018-06-03T02:37:07.609Z,52.80
2018-06-03T02:39:35.702Z,52.80
2018-06-03T02:42:03.798Z,52.80
2018-06-03T02:44:31.916Z,52.80
2018-06-03T02:47:00.004Z,52.80
2018-06-03T02:49:28.200Z,52.70
2018-06-03T02:51:57.397Z,52.70
2018-06-03T02:54:25.511Z,52.70
2018-06-03T02:56:53.578Z,52.70
2018-06-03T02:59:21.638Z,52.80
2018-06-03T03:01:49.732Z,52.70
2018-06-03T03:04:17.796Z,52.80
2018-06-03T03:06:45.884Z,52.70
2018-06-03T03:09:13.973Z,52.70
2018-06-03T03:11:42.053Z,52.70
2018-06-03T03:14:10.146Z,52.70
2018-06-03T03:16:38.231Z,52.70
2018-06-03T03:19:06.314Z,52.70
2018-06-03T03:21:34.489Z,52.70
2018-06-03T03:24:02.634Z,52.80
2018-06-03T03:26:30.775Z,52.70
2018-06-03T03:28:58.910Z,52.70
2018-06-03T03:31:27.048Z,52.80
2018-06-03T03:33:55.117Z,52.80
2018-06-03T03:36:23.190Z,52.80
2018-06-03T03:38:51.291Z,52.80
2018-06-03T03:41:19.377Z,52.80
2018-06-03T03:43:47.471Z,52.80
2018-06-03T03:46:15.545Z,52.80
2018-06-03T03:48:43.645Z,52.80
2018-06-03T03:51:11.746Z,52.80
2018-06-03T03:53:39.945Z,52.90
2018-06-03T03:56:08.050Z,53.40
2018-06-03T03:58:36.148Z,52.80
2018-06-03T04:01:04.241Z,52.80
2018-06-03T04:03:32.434Z,52.90
2018-06-03T04:06:00.577Z,52.90
2018-06-03T04:08:28.685Z,52.80
2018-06-03T04:10:56.805Z,52.80
2018-06-03T04:13:24.876Z,52.80
2018-06-03T04:18:20.882Z,52.70
2018-06-03T04:20:48.992Z,52.70
2018-06-03T04:23:17.061Z,52.70
2018-06-03T04:25:45.209Z,52.70
2018-06-03T04:28:13.300Z,52.60
2018-06-03T04:30:41.444Z,52.60
2018-06-03T04:33:09.617Z,52.60
2018-06-03T04:35:37.697Z,53.00
2018-06-03T04:38:05.796Z,52.60
2018-06-03T04:40:34.015Z,52.60
2018-06-03T04:43:02.118Z,52.60
2018-06-03T04:45:30.228Z,52.60
2018-06-03T04:47:58.385Z,52.60
2018-06-03T04:50:26.547Z,52.80
2018-06-03T04:52:54.601Z,52.60
2018-06-03T04:55:22.786Z,53.20
2018-06-03T04:57:50.889Z,52.70
2018-06-03T05:02:46.845Z,52.60
2018-06-03T05:05:14.987Z,52.60
2018-06-03T05:07:43.064Z,52.60
2018-06-03T05:10:11.208Z,52.50
2018-06-03T05:12:39.292Z,52.50
2018-06-03T05:15:07.373Z,52.80
2018-06-03T05:17:35.492Z,52.90
2018-06-03T05:20:03.607Z,52.40
2018-06-03T05:22:31.780Z,52.40
2018-06-03T05:24:59.960Z,52.30
2018-06-03T05:27:28.120Z,52.40
2018-06-03T05:29:56.266Z,52.40
2018-06-03T05:32:24.341Z,52.30
2018-06-03T05:34:52.412Z,52.30
2018-06-03T05:37:20.482Z,52.40
2018-06-03T05:39:48.553Z,52.30
2018-06-03T05:42:16.697Z,52.40
2018-06-03T05:44:44.780Z,52.40
2018-06-03T05:47:12.893Z,52.40
2018-06-03T05:52:08.916Z,52.40
2018-06-03T05:54:37.002Z,52.30
2018-06-03T05:57:05.155Z,52.40
2018-06-03T05:59:33.249Z,52.40
2018-06-03T06:02:01.345Z,52.50
2018-06-03T06:04:29.482Z,52.40
2018-06-03T06:09:25.510Z,52.50
2018-06-03T06:11:53.621Z,52.50
2018-06-03T06:14:21.715Z,52.40
2018-06-03T06:16:49.809Z,52.50
2018-06-03T06:19:17.902Z,52.40
2018-06-03T06:21:46.004Z,52.50
2018-06-03T06:24:14.093Z,52.40
2018-06-03T06:26:42.169Z,52.40
2018-06-03T06:29:10.289Z,52.50
2018-06-03T06:31:38.535Z,52.40
2018-06-03T06:36:34.537Z,52.40
2018-06-03T06:39:02.706Z,52.50
2018-06-03T06:41:30.817Z,52.50
2018-06-03T06:43:59.030Z,52.50
2018-06-03T06:46:27.181Z,52.50
2018-06-03T06:48:55.276Z,52.50
2018-06-03T06:51:23.340Z,52.50
2018-06-03T06:53:51.468Z,52.50
2018-06-03T06:56:19.594Z,52.60
2018-06-03T06:58:47.773Z,52.30
2018-06-03T07:01:15.974Z,52.50
2018-06-03T07:03:44.093Z,52.50
2018-06-03T07:06:12.169Z,52.50
2018-06-03T07:08:40.241Z,52.40
2018-06-03T07:11:08.310Z,52.40
2018-06-03T07:13:36.384Z,52.50
2018-06-03T07:16:04.488Z,52.50
2018-06-03T07:18:32.772Z,52.50
2018-06-03T07:21:00.897Z,52.40
2018-06-03T07:23:29.008Z,52.30
2018-06-03T07:25:57.124Z,52.30
2018-06-03T07:28:25.205Z,52.30
2018-06-03T07:30:53.354Z,52.30
2018-06-03T07:35:49.320Z,52.10
2018-06-03T07:40:45.524Z,52.20
2018-06-03T07:43:13.613Z,52.20
2018-06-03T07:45:41.697Z,52.20
2018-06-03T07:48:09.809Z,52.10
2018-06-03T07:50:37.957Z,52.10
2018-06-03T07:53:06.734Z,52.70
2018-06-03T07:55:34.916Z,52.00
2018-06-03T08:00:31.232Z,52.00
2018-06-03T08:02:59.511Z,52.00
2018-06-03T08:05:28.033Z,52.00
2018-06-03T08:07:56.112Z,51.90
2018-06-03T08:10:24.186Z,51.90
2018-06-03T08:12:52.328Z,52.00
2018-06-03T08:15:20.384Z,52.00
2018-06-03T08:17:48.469Z,52.50
2018-06-03T08:20:16.544Z,51.90
2018-06-03T08:22:44.619Z,51.90
2018-06-03T08:25:12.735Z,51.80
2018-06-03T08:27:40.816Z,51.80
2018-06-03T08:30:08.949Z,51.90
2018-06-03T08:32:37.035Z,51.80
2018-06-03T08:35:05.320Z,51.80
2018-06-03T08:37:33.477Z,51.80
2018-06-03T08:42:29.494Z,51.70
2018-06-03T08:44:59.312Z,51.70
2018-06-03T08:47:27.501Z,51.70
2018-06-03T08:49:55.655Z,51.70
2018-06-03T08:52:23.801Z,51.70
2018-06-03T08:54:51.950Z,51.70
2018-06-03T08:57:20.073Z,51.80
2018-06-03T08:59:48.132Z,52.00
2018-06-03T09:02:16.237Z,51.90
2018-06-03T09:04:44.337Z,52.00
2018-06-03T09:07:12.435Z,52.10
2018-06-03T09:09:40.653Z,52.30
2018-06-03T09:12:08.712Z,53.10
2018-06-03T09:14:36.810Z,52.60
2018-06-03T09:17:05.065Z,52.50
2018-06-03T09:19:33.278Z,52.60
2018-06-03T09:22:01.419Z,52.60
2018-06-03T09:24:29.669Z,52.50
2018-06-03T09:29:25.772Z,52.30
2018-06-03T09:31:53.877Z,52.30
2018-06-03T09:34:21.964Z,52.30
2018-06-03T09:36:50.065Z,52.30
2018-06-03T09:39:18.245Z,52.20
2018-06-03T09:41:46.386Z,52.10
2018-06-03T09:44:14.470Z,52.00
2018-06-03T09:46:42.590Z,52.10
2018-06-03T09:49:10.679Z,51.90
2018-06-03T09:51:38.750Z,51.90
2018-06-03T09:54:06.865Z,51.90
2018-06-03T09:56:35.034Z,51.80
2018-06-03T09:59:03.293Z,51.80
2018-06-03T10:01:31.442Z,51.90
2018-06-03T10:03:59.745Z,51.90
2018-06-03T10:06:27.922Z,51.90
2018-06-03T10:08:56.082Z,52.00
2018-06-03T10:11:24.160Z,52.00
2018-06-03T10:13:52.281Z,52.70
2018-06-03T10:16:20.374Z,52.10
2018-06-03T10:18:48.442Z,52.30
2018-06-03T10:21:16.516Z,52.30
2018-06-03T10:23:44.605Z,52.10
2018-06-03T10:26:12.725Z,52.00
2018-06-03T10:28:40.809Z,52.40
2018-06-03T10:31:08.928Z,52.10
2018-06-03T10:33:37.028Z,52.10
2018-06-03T10:36:05.169Z,52.30
2018-06-03T10:38:33.476Z,52.30
2018-06-03T10:41:01.675Z,52.50
2018-06-03T10:43:29.877Z,52.60
2018-06-03T10:48:26.760Z,52.70
2018-06-03T10:50:54.857Z,52.70
2018-06-03T10:53:22.984Z,52.60
2018-06-03T10:55:51.146Z,52.60
2018-06-03T10:58:19.291Z,52.50
2018-06-03T11:00:47.373Z,52.60
2018-06-03T11:03:15.607Z,52.50
2018-06-03T11:05:43.666Z,52.50
2018-06-03T11:08:11.773Z,52.20
2018-06-03T11:10:39.872Z,52.10
2018-06-03T11:13:08.001Z,52.10
2018-06-03T11:15:36.145Z,51.90
2018-06-03T11:18:04.304Z,52.10
2018-06-03T11:20:32.436Z,52.30
2018-06-03T11:23:00.655Z,52.20
2018-06-03T11:25:28.925Z,52.30
2018-06-03T11:27:57.099Z,52.40
2018-06-03T11:30:25.181Z,52.50
2018-06-03T11:32:53.241Z,52.50
2018-06-03T11:35:21.408Z,52.60
2018-06-03T11:37:49.547Z,52.50
2018-06-03T11:40:17.638Z,52.50
2018-06-03T11:42:45.758Z,52.70
2018-06-03T11:47:41.706Z,52.80
2018-06-03T11:50:09.760Z,52.80
2018-06-03T11:52:37.846Z,52.70
2018-06-03T11:55:05.935Z,52.70
2018-06-03T11:57:50.286Z,53.00
2018-06-03T12:00:18.404Z,53.00
2018-06-03T12:02:46.553Z,53.00
2018-06-03T12:05:14.612Z,52.80
2018-06-03T12:07:42.741Z,53.10
2018-06-03T12:10:10.837Z,53.30
2018-06-03T12:12:39.036Z,53.50
2018-06-03T12:15:07.213Z,53.20
2018-06-03T12:17:35.362Z,53.20
2018-06-03T12:20:03.602Z,53.40
2018-06-03T12:24:59.800Z,53.40
2018-06-03T12:27:28.025Z,53.30
2018-06-03T12:29:56.136Z,53.80
2018-06-03T12:32:24.236Z,53.70
2018-06-03T12:37:20.232Z,53.70
2018-06-03T12:39:48.482Z,53.80
2018-06-03T12:42:16.599Z,53.70
2018-06-03T12:44:44.666Z,53.60
2018-06-03T12:47:12.801Z,53.40
2018-06-03T12:49:40.876Z,53.80
2018-06-03T12:52:09.033Z,53.40
2018-06-03T12:54:37.086Z,53.20
2018-06-03T12:57:05.684Z,53.10
2018-06-03T12:59:33.849Z,53.20
2018-06-03T13:02:01.967Z,53.00
2018-06-03T13:04:30.097Z,52.70
2018-06-03T13:06:58.281Z,52.60
2018-06-03T13:09:27.073Z,52.30
2018-06-03T13:11:55.177Z,52.50
2018-06-03T13:14:23.329Z,52.50
2018-06-03T13:16:51.537Z,52.20
2018-06-03T13:19:19.709Z,52.00
2018-06-03T13:21:47.799Z,51.90
2018-06-03T13:24:15.957Z,52.00
2018-06-03T13:26:44.069Z,51.90
2018-06-03T13:29:12.205Z,51.70
2018-06-03T13:31:40.297Z,51.80
2018-06-03T13:36:36.396Z,51.20
2018-06-03T13:39:06.921Z,51.50
2018-06-03T13:41:35.024Z,51.70
2018-06-03T13:44:03.300Z,51.50
2018-06-03T13:46:31.556Z,51.50
2018-06-03T13:49:00.213Z,51.10
2018-06-03T13:51:28.420Z,51.30
2018-06-03T13:53:56.573Z,51.30
2018-06-03T13:56:24.757Z,51.40
2018-06-03T13:58:52.945Z,51.90
2018-06-03T14:01:21.044Z,51.80
2018-06-03T14:03:49.105Z,51.80
2018-06-03T14:06:17.241Z,51.60
2018-06-03T14:08:45.342Z,51.60
2018-06-03T14:11:13.421Z,51.90
2018-06-03T14:13:41.509Z,51.70
2018-06-03T14:16:09.592Z,51.70
2018-06-03T14:18:37.784Z,51.70
2018-06-03T14:21:06.128Z,51.70
2018-06-03T14:23:34.251Z,52.40
2018-06-03T14:26:02.374Z,51.60
2018-06-03T14:28:30.549Z,51.70
2018-06-03T14:33:26.648Z,52.50
2018-06-03T14:35:54.713Z,52.00
2018-06-03T14:38:22.815Z,52.00
2018-06-03T14:40:50.907Z,52.00
2018-06-03T14:43:18.998Z,52.20
2018-06-03T14:45:47.168Z,52.00
2018-06-03T14:48:15.453Z,52.00
2018-06-03T14:50:43.547Z,52.20
2018-06-03T14:53:11.705Z,52.20
2018-06-03T14:55:39.830Z,52.20
2018-06-03T14:58:07.912Z,52.30
2018-06-03T15:00:36.093Z,52.10
2018-06-03T15:03:06.027Z,52.10
2018-06-03T15:05:34.158Z,52.40
2018-06-03T15:08:02.695Z,52.70
2018-06-03T15:10:30.823Z,52.50
2018-06-03T15:12:59.185Z,52.30
2018-06-03T15:17:55.209Z,52.00
2018-06-03T15:20:23.406Z,51.90
2018-06-03T15:22:51.489Z,51.80
2018-06-03T15:25:19.575Z,51.50
2018-06-03T15:27:47.660Z,51.40
2018-06-03T15:30:15.780Z,51.30
2018-06-03T15:32:43.911Z,51.50
2018-06-03T15:35:12.022Z,51.50
2018-06-03T15:37:40.158Z,51.60
2018-06-03T15:40:08.240Z,51.50
2018-06-03T15:42:36.345Z,51.50
2018-06-03T15:45:04.514Z,51.50
2018-06-03T15:47:32.724Z,51.50
2018-06-03T15:50:00.951Z,51.70
2018-06-03T15:52:29.221Z,52.00
2018-06-03T15:54:57.499Z,52.00
2018-06-03T15:57:25.639Z,51.50
2018-06-03T15:59:53.763Z,51.30
2018-06-03T16:02:21.850Z,51.20
2018-06-03T16:04:49.985Z,51.20
2018-06-03T16:07:18.077Z,51.20
2018-06-03T16:09:46.355Z,51.20
2018-06-03T16:12:14.429Z,51.30
2018-06-03T16:14:42.537Z,51.50
2018-06-03T16:17:10.668Z,51.70
2018-06-03T16:19:38.837Z,51.70
2018-06-03T16:22:06.938Z,52.00
2018-06-03T16:24:35.122Z,51.60
2018-06-03T16:27:03.276Z,51.50
2018-06-03T16:29:31.609Z,51.40
2018-06-03T16:31:59.752Z,51.50
2018-06-03T16:34:27.953Z,51.40
2018-06-03T16:36:56.075Z,51.40
2018-06-03T16:39:24.312Z,51.30
2018-06-03T16:41:52.396Z,51.40
2018-06-03T16:44:20.460Z,51.40
2018-06-03T16:46:48.530Z,51.40
2018-06-03T16:49:16.745Z,51.40
2018-06-03T16:51:44.808Z,51.50
2018-06-03T16:54:12.869Z,51.50
2018-06-03T16:59:08.813Z,51.40
2018-06-03T17:01:36.877Z,51.30
2018-06-03T17:04:05.233Z,51.20
2018-06-03T17:06:33.345Z,51.30
2018-06-03T17:09:01.465Z,51.30
2018-06-03T17:11:29.653Z,51.30
2018-06-03T17:13:57.872Z,51.30
2018-06-03T17:16:25.970Z,51.30
2018-06-03T17:18:54.035Z,51.30
2018-06-03T17:21:22.140Z,51.30
2018-06-03T17:23:50.214Z,51.30
2018-06-03T17:26:18.372Z,51.30
2018-06-03T17:28:46.440Z,51.30
2018-06-03T17:31:14.498Z,51.30
2018-06-03T17:33:42.641Z,51.10
2018-06-03T17:36:10.669Z,51.10
2018-06-03T17:38:38.744Z,51.10
2018-06-03T17:41:06.828Z,51.00
2018-06-03T17:43:35.024Z,50.80
2018-06-03T17:46:03.129Z,50.90
2018-06-03T17:48:31.268Z,50.90
2018-06-03T17:50:59.422Z,50.90
2018-06-03T17:53:27.547Z,50.70
2018-06-03T17:55:55.637Z,50.70
2018-06-03T17:58:23.767Z,50.70
2018-06-03T18:03:19.674Z,50.70
2018-06-03T18:05:47.861Z,50.80
2018-06-03T18:08:15.926Z,50.70
2018-06-03T18:10:43.978Z,50.70
2018-06-03T18:13:12.111Z,50.70
2018-06-03T18:15:40.178Z,50.80
2018-06-03T18:18:09.439Z,50.80
2018-06-03T18:20:37.565Z,50.90
2018-06-03T18:23:05.693Z,50.90
2018-06-03T18:25:33.808Z,50.80
2018-06-03T18:28:01.935Z,50.80
2018-06-03T18:30:30.334Z,50.80
2018-06-03T18:32:58.767Z,50.80
2018-06-03T18:35:27.193Z,50.70
2018-06-03T18:40:23.126Z,50.70
2018-06-03T18:42:51.241Z,51.20
2018-06-03T18:47:55.089Z,50.60
2018-06-03T18:50:23.145Z,50.50
2018-06-03T18:52:51.217Z,50.70
2018-06-03T18:55:19.301Z,50.60
2018-06-03T19:00:15.368Z,50.60
2018-06-03T19:02:43.453Z,50.70
2018-06-03T19:05:11.592Z,50.70
2018-06-03T19:07:39.857Z,50.70
2018-06-03T19:12:35.977Z,50.90
2018-06-03T19:15:04.096Z,50.90
2018-06-03T19:17:32.326Z,50.80
2018-06-03T19:20:00.443Z,50.90
2018-06-03T19:22:28.595Z,50.90
2018-06-03T19:24:56.717Z,50.70
2018-06-03T19:27:24.772Z,50.70
2018-06-03T19:29:52.845Z,50.50
2018-06-03T19:32:20.930Z,50.50
2018-06-03T19:34:49.068Z,50.40
2018-06-03T19:37:17.345Z,50.40
2018-06-03T19:39:45.456Z,50.40
2018-06-03T19:42:13.521Z,50.30
2018-06-03T19:44:41.620Z,50.30
2018-06-03T19:47:09.733Z,50.30
2018-06-03T19:49:37.972Z,50.30
2018-06-03T19:52:06.041Z,50.30
2018-06-03T19:54:34.160Z,50.30
2018-06-03T19:57:02.250Z,50.30
2018-06-03T19:59:30.445Z,50.30
2018-06-03T20:01:58.585Z,50.30
2018-06-03T20:04:27.685Z,50.40
2018-06-03T20:06:56.170Z,50.30
2018-06-03T20:09:24.269Z,50.30
2018-06-03T20:11:52.376Z,50.30
2018-06-03T20:14:20.469Z,50.30
2018-06-03T20:16:48.570Z,50.90
2018-06-03T20:19:16.630Z,50.30
2018-06-03T20:21:44.806Z,50.40
2018-06-03T20:24:12.888Z,50.40
2018-06-03T20:26:40.993Z,50.40
2018-06-03T20:29:09.065Z,50.40
2018-06-03T20:31:37.145Z,50.50
2018-06-03T20:34:05.228Z,50.60
2018-06-03T20:36:33.392Z,50.70
2018-06-03T20:39:01.611Z,50.70
2018-06-03T20:41:29.832Z,50.80
2018-06-03T20:43:57.941Z,50.90
2018-06-03T20:46:26.029Z,51.00
2018-06-03T20:48:54.209Z,51.00
2018-06-03T20:51:22.449Z,51.10
2018-06-03T20:53:50.582Z,51.20
2018-06-03T20:56:18.760Z,51.30
2018-06-03T20:58:46.914Z,51.40
2018-06-03T21:01:15.128Z,51.40
2018-06-03T21:03:43.247Z,51.50
2018-06-03T21:06:11.375Z,51.50
2018-06-03T21:08:39.603Z,51.50
2018-06-03T21:11:07.659Z,51.60
2018-06-03T21:13:35.712Z,51.60
2018-06-03T21:16:03.805Z,51.70
2018-06-03T21:18:31.940Z,51.70
2018-06-03T21:21:00.787Z,51.70
2018-06-03T21:23:28.923Z,51.70
2018-06-03T21:25:57.013Z,51.70
2018-06-03T21:28:25.072Z,51.70
2018-06-03T21:30:53.136Z,51.70
2018-06-03T21:33:21.201Z,51.70
2018-06-03T21:35:49.293Z,51.70
2018-06-03T21:38:17.356Z,51.70
2018-06-03T21:40:45.420Z,51.70
2018-06-03T21:43:13.571Z,51.70
2018-06-03T21:45:41.705Z,51.70
2018-06-03T21:48:09.760Z,51.70
2018-06-03T21:50:37.830Z,51.60
2018-06-03T21:53:05.889Z,51.70
2018-06-03T21:55:33.982Z,51.60
2018-06-03T21:58:02.103Z,51.60
2018-06-03T22:00:30.184Z,51.60
2018-06-03T22:02:58.284Z,51.60
2018-06-03T22:05:26.364Z,51.60
2018-06-03T22:07:54.425Z,51.60
2018-06-03T22:10:22.666Z,51.60
2018-06-03T22:12:50.740Z,51.60
2018-06-03T22:15:18.840Z,51.60
2018-06-03T22:17:46.905Z,51.60
2018-06-03T22:20:14.976Z,51.60
2018-06-03T22:22:43.085Z,51.60
2018-06-03T22:25:11.160Z,51.60
2018-06-03T22:27:39.317Z,51.60
2018-06-03T22:30:07.569Z,51.60
2018-06-03T22:32:35.694Z,51.60
2018-06-03T22:35:03.785Z,51.60
2018-06-03T22:37:31.946Z,51.60
2018-06-03T22:40:00.041Z,51.50
2018-06-03T22:44:56.090Z,51.60
2018-06-03T22:47:24.183Z,51.60
2018-06-03T22:49:52.264Z,51.60
2018-06-03T22:52:20.401Z,52.20
2018-06-03T22:54:48.501Z,51.60
2018-06-03T22:58:20.048Z,51.50
2018-06-03T23:00:48.166Z,51.60
2018-06-03T23:03:16.753Z,51.50
2018-06-03T23:05:44.807Z,51.50
2018-06-03T23:08:12.889Z,51.50
2018-06-03T23:10:41.137Z,51.50
2018-06-03T23:13:09.192Z,51.50
2018-06-03T23:15:37.306Z,51.50
2018-06-03T23:18:05.380Z,51.50
2018-06-03T23:20:33.520Z,51.50
2018-06-03T23:23:01.607Z,51.50
2018-06-03T23:25:29.728Z,51.50
2018-06-03T23:27:57.843Z,51.50
2018-06-03T23:30:25.974Z,51.40
2018-06-03T23:32:54.062Z,51.60
2018-06-03T23:35:22.136Z,51.30
2018-06-03T23:37:50.208Z,51.30
2018-06-03T23:40:18.351Z,51.30
2018-06-03T23:42:46.446Z,51.40
2018-06-03T23:47:42.404Z,51.10
2018-06-03T23:50:10.477Z,51.30
2018-06-03T23:52:38.624Z,51.30
2018-06-03T23:55:06.703Z,51.30
2018-06-03T23:57:34.914Z,51.30
